Grubville, MO

3:35 AM CDT on October 24, 2014 (GMT -0500)
Parkway Village | Change Station
CLOSE
Current Station
Personal Weather Station
Location: St Clair, MO
Elevation: 748 ft
Nearby Weather Stations

Elev 748 ft 38.34 °N, 90.97 °W | Updated 5 seconds ago

Mostly Cloudy
Mostly Cloudy
55.0 °F
Feels Like 55.0 °F
N
2.2
Wind Variable Wind from NW
Gusts 3.1 mph

Today
High -- | Low -- °F
--% Chance of Precip.
Yesterday
High -- | Low -- °F
Precip. -- in
7:20 AM 6:13 PM
New Moon, 0% visible
Pressure 30.08 in
Visibility 10.0 miles
Clouds Scattered Clouds 2700 ft
Mostly Cloudy 3200 ft
Dew Point 47 °F
Humidity 75%
Rainfall 0.00 in
Snow Depth Not available.
UV 0 out of 12
Pollen 2.30 out of 12
Air Quality Not available.
Flu Activity No Activity
METAR KFYG 240815Z AUTO 00000KT 10SM SCT027 BKN032 10/09 A3008 RMK AO2

More Conditions Fewer Conditions

Pressure 30.08 in
Visibility 10.0 miles
Clouds Scattered Clouds 2700 ft
Mostly Cloudy 3200 ft
Dew Point 47 °F
Humidity 75%
Rainfall 0.00 in
Snow Depth Not available.
UV 0 out of 12
Pollen 2.30 out of 12
Air Quality Not available.
Flu Activity No Activity
METAR KFYG 240815Z AUTO 00000KT 10SM SCT027 BKN032 10/09 A3008 RMK AO2

More Conditions Fewer Conditions

10-Day Weather Forecast

Almanac

Astronomy

Oct. 24, 2014 Rise Set
Actual Time 7:20 AM CDT 6:13 PM CDT
Civil Twilight 6:53 AM CDT 6:40 PM CDT
Nautical Twilight 6:23 AM CDT 7:10 PM CDT
Astronomical Twilight 5:52 AM CDT 7:41 PM CDT
Moon 7:59 AM CDT 6:54 PM CDT
Length of Visible Light 11h 46m
Length of Day
10h 52m
Tomorrow will be 2m 17s shorter.
New Moon, 0% of the Moon is Illuminated
Today
New Moon
Oct 30
First Quarter
Nov 6
Full
Nov 14
Last Quarter
Nov 22
New

Today's Extremes

State Highs State Lows

Community

WunderPhotos

Upload Photos

1,764,511 photos uploaded!

WunderBlogs® & News

Nearby

Snow Depth

Station Depth Elevation
No new snow has been reported.

Earthquake Activity

City Distance Mag. Time & Date
No recent earthquake activity has been reported nearby.
Minimum magnitude displayed is 2.5.

Coastal Water Temperatures

Place Temperature
No Stations Reporting

Nearby Weather Stations